Time;durP1;ratioP1;P1;durP2;ratioP2;P2;SDS_P1;SDS_P2;PMS_P1;PMS_P2;Temp;Humidity;BMP_temperature;BMP_pressure;BME280_temperature;BME280_humidity;BME280_pressure;Samples;Min_cycle;Max_cycle;Signal;HPM_P1;HPM_P2
2022/11/09 00:00:28;;;;;;;14.23;7.50;;;21.20;70.70;;;;;;5068687;28;20031;-76
2022/11/09 00:02:54;;;;;;;14.88;7.38;;;21.20;71.00;;;;;;5068225;28;20024;-76
2022/11/09 00:05:20;;;;;;;16.38;7.68;;;21.20;71.20;;;;;;5068581;28;20033;-76
2022/11/09 00:07:46;;;;;;;27.15;7.70;;;21.20;71.40;;;;;;5050336;28;20064;-76
2022/11/09 00:10:12;;;;;;;22.00;8.15;;;21.20;71.00;;;;;;5067929;28;20457;-76
2022/11/09 00:12:37;;;;;;;18.92;7.95;;;21.20;71.70;;;;;;5068224;28;20028;-76
2022/11/09 00:15:03;;;;;;;15.10;8.30;;;21.20;71.50;;;;;;5069140;28;20024;-77
2022/11/09 00:17:29;;;;;;;14.48;7.38;;;21.20;71.80;;;;;;5069372;28;20068;-75
2022/11/09 00:19:55;;;;;;;15.68;8.13;;;21.20;71.90;;;;;;5067097;28;20055;-76
2022/11/09 00:22:21;;;;;;;14.73;7.55;;;21.20;71.70;;;;;;5066471;28;20033;-76
2022/11/09 00:24:46;;;;;;;11.98;7.60;;;21.20;71.60;;;;;;5068781;28;20028;-77
2022/11/09 00:27:12;;;;;;;13.23;7.63;;;21.20;71.80;;;;;;5051157;28;20107;-76
2022/11/09 00:29:38;;;;;;;16.35;7.80;;;21.20;71.60;;;;;;5069900;28;20027;-77
2022/11/09 00:32:04;;;;;;;15.70;7.68;;;21.20;71.70;;;;;;5053662;28;20040;-77
2022/11/09 00:34:30;;;;;;;13.40;6.70;;;21.20;71.90;;;;;;5052247;28;20470;-76
2022/11/09 00:36:55;;;;;;;12.05;6.78;;;21.20;71.50;;;;;;5070069;28;20067;-77
2022/11/09 00:39:21;;;;;;;16.55;7.65;;;21.20;71.70;;;;;;5052068;28;20039;-77
2022/11/09 00:41:47;;;;;;;12.57;7.05;;;21.20;71.70;;;;;;5072789;28;20065;-76
2022/11/09 00:44:13;;;;;;;12.68;6.97;;;21.20;71.80;;;;;;5054053;28;20162;-77
2022/11/09 00:46:38;;;;;;;12.23;7.15;;;21.20;71.90;;;;;;5056030;28;20153;-77
2022/11/09 00:49:04;;;;;;;11.75;7.13;;;21.20;71.90;;;;;;5050252;28;20108;-77
2022/11/09 00:51:30;;;;;;;12.77;7.20;;;21.20;71.70;;;;;;5054917;28;20028;-78
2022/11/09 00:53:57;;;;;;;20.52;7.43;;;21.30;72.00;;;;;;5051252;28;20036;-76
2022/11/09 00:56:23;;;;;;;16.40;7.20;;;21.30;71.90;;;;;;5049173;28;20031;-78
2022/11/09 00:58:53;;;;;;;13.05;6.53;;;21.30;71.60;;;;;;5049768;28;20028;-78
2022/11/09 01:01:19;;;;;;;20.80;7.15;;;21.20;71.50;;;;;;5061419;28;20656;-78
2022/11/09 01:03:45;;;;;;;17.27;6.97;;;21.20;68.20;;;;;;5046846;28;20032;-79
2022/11/09 01:06:18;;;;;;;13.25;6.32;;;21.20;69.90;;;;;;5051981;28;20441;-77
2022/11/09 01:08:44;;;;;;;16.00;7.22;;;21.20;70.00;;;;;;5072194;28;20547;-77
2022/11/09 01:11:11;;;;;;;15.45;6.82;;;21.20;69.30;;;;;;5053622;28;20577;-77
2022/11/09 01:13:37;;;;;;;17.48;6.72;;;21.20;70.20;;;;;;5071604;28;20032;-77
2022/11/09 01:16:09;;;;;;;14.27;6.50;;;21.20;69.70;;;;;;5040989;28;20121;-77
2022/11/09 01:18:36;;;;;;;15.20;6.28;;;21.10;69.80;;;;;;5073649;28;20067;-77
2022/11/09 01:21:03;;;;;;;17.10;6.40;;;21.20;69.90;;;;;;5038771;28;20104;-77
2022/11/09 01:23:30;;;;;;;15.98;6.80;;;21.10;69.80;;;;;;5038253;28;20064;-77
2022/11/09 01:26:04;;;;;;;17.20;6.75;;;21.20;70.10;;;;;;5073249;28;20032;-78
2022/11/09 01:28:30;;;;;;;17.45;7.13;;;21.10;70.10;;;;;;5073444;28;20695;-77
2022/11/09 01:31:04;;;;;;;14.90;6.30;;;21.10;70.10;;;;;;5055193;28;20091;-77
2022/11/09 01:33:31;;;;;;;13.02;6.88;;;21.10;70.10;;;;;;5037145;28;20448;-77
2022/11/09 01:36:13;;;;;;;22.77;6.35;;;21.10;70.20;;;;;;5072487;28;20511;-77
2022/11/09 01:38:39;;;;;;;13.35;6.30;;;21.10;70.30;;;;;;5067542;28;20036;-78
2022/11/09 01:41:11;;;;;;;15.55;6.28;;;21.10;70.10;;;;;;5054915;28;20440;-78
2022/11/09 01:43:37;;;;;;;14.07;5.80;;;21.10;70.30;;;;;;5036884;28;20036;-78
2022/11/09 01:46:11;;;;;;;12.40;6.43;;;21.10;70.30;;;;;;5053781;28;20031;-78
2022/11/09 01:48:52;;;;;;;11.45;6.00;;;21.10;70.50;;;;;;5054093;28;20035;-78
2022/11/09 01:51:35;;;;;;;12.02;5.85;;;21.10;70.40;;;;;;5053408;28;20035;-78
2022/11/09 01:54:11;;;;;;;12.82;6.32;;;21.10;70.20;;;;;;5052328;28;20040;-78
2022/11/09 01:56:38;;;;;;;11.35;6.25;;;21.10;70.60;;;;;;5042189;28;20028;-77
2022/11/09 01:59:09;;;;;;;15.10;6.20;;;21.10;70.30;;;;;;5052839;28;20024;-77
2022/11/09 02:01:35;;;;;;;13.65;5.95;;;21.10;70.70;;;;;;5054631;28;20025;-77
2022/11/09 02:04:09;;;;;;;13.40;6.45;;;21.10;70.70;;;;;;5070977;28;20085;-77
2022/11/09 02:06:35;;;;;;;9.70;5.40;;;21.10;70.50;;;;;;5053657;28;20020;-77
2022/11/09 02:09:11;;;;;;;10.20;5.68;;;21.10;70.50;;;;;;5053433;28;20089;-77
2022/11/09 02:11:37;;;;;;;10.18;5.53;;;21.10;70.60;;;;;;5030134;28;20024;-77
2022/11/09 02:14:05;;;;;;;13.75;6.30;;;21.10;70.60;;;;;;5052858;28;20039;-77
2022/11/09 02:16:31;;;;;;;11.27;5.90;;;21.10;70.80;;;;;;5052531;28;20040;-77
2022/11/09 02:18:59;;;;;;;12.18;5.60;;;21.10;70.60;;;;;;5053641;28;20040;-77
2022/11/09 02:21:28;;;;;;;11.18;5.75;;;21.20;70.60;;;;;;5053218;28;20112;-77
2022/11/09 02:23:54;;;;;;;11.95;6.00;;;21.10;70.90;;;;;;5051858;28;20060;-77
2022/11/09 02:26:43;;;;;;;15.48;6.47;;;21.20;70.40;;;;;;5037340;28;20111;-77
2022/11/09 02:29:13;;;;;;;13.73;5.78;;;21.20;71.30;;;;;;5053053;28;20031;-77
2022/11/09 02:31:46;;;;;;;9.90;5.43;;;21.20;70.60;;;;;;5052122;28;20021;-77
2022/11/09 02:34:18;;;;;;;12.68;5.80;;;21.20;70.50;;;;;;5051388;28;20036;-77
2022/11/09 02:36:44;;;;;;;12.20;5.80;;;21.10;70.50;;;;;;5052950;28;20529;-77
2022/11/09 02:39:19;;;;;;;12.40;5.75;;;21.20;70.70;;;;;;5053653;28;20489;-77
2022/11/09 02:41:58;;;;;;;9.48;5.40;;;21.20;70.60;;;;;;5052672;28;20056;-77
2022/11/09 02:44:31;;;;;;;10.45;5.40;;;21.20;70.60;;;;;;5052932;28;20550;-77
2022/11/09 02:46:57;;;;;;;10.85;5.28;;;21.10;70.60;;;;;;5053932;28;20020;-77
2022/11/09 02:49:25;;;;;;;11.02;5.72;;;21.20;70.60;;;;;;5052582;28;20028;-77
2022/11/09 02:51:51;;;;;;;11.75;4.95;;;21.10;70.60;;;;;;5051873;28;20070;-77
2022/11/09 02:54:17;;;;;;;10.20;5.20;;;21.20;70.90;;;;;;5060605;28;20040;-77
2022/11/09 02:56:43;;;;;;;11.00;5.63;;;21.20;71.90;;;;;;5051590;28;20025;-77
2022/11/09 02:59:09;;;;;;;11.07;5.43;;;21.20;71.20;;;;;;5070034;28;20097;-77
2022/11/09 03:01:35;;;;;;;9.45;5.18;;;21.20;71.50;;;;;;5045463;28;20032;-78
2022/11/09 03:04:01;;;;;;;12.23;5.32;;;21.20;70.90;;;;;;5034719;28;20033;-78
2022/11/09 03:06:33;;;;;;;9.95;5.07;;;21.20;71.40;;;;;;5052355;28;20081;-78
2022/11/09 03:09:04;;;;;;;11.38;5.40;;;21.10;71.10;;;;;;5053382;28;20107;-77
2022/11/09 03:11:30;;;;;;;11.82;5.43;;;21.10;71.30;;;;;;5046200;28;20039;-78
2022/11/09 03:13:57;;;;;;;9.73;5.28;;;21.10;71.00;;;;;;5052152;28;20028;-78
2022/11/09 03:16:24;;;;;;;11.30;4.97;;;21.20;71.00;;;;;;5052069;28;20550;-77
2022/11/09 03:18:51;;;;;;;11.00;5.03;;;21.20;70.90;;;;;;5052257;28;20259;-77
2022/11/09 03:21:17;;;;;;;11.00;5.22;;;21.20;71.00;;;;;;5052609;28;20025;-77
2022/11/09 03:23:44;;;;;;;9.98;5.30;;;21.10;71.20;;;;;;5052857;28;20035;-77
2022/11/09 03:26:11;;;;;;;14.77;5.15;;;21.20;71.30;;;;;;5052869;28;20085;-77
2022/11/09 03:28:37;;;;;;;10.32;5.35;;;21.20;71.30;;;;;;5052164;28;20028;-77
2022/11/09 03:31:03;;;;;;;10.05;5.05;;;21.10;71.20;;;;;;5052843;28;20039;-77
2022/11/09 03:33:29;;;;;;;10.77;5.30;;;21.20;71.60;;;;;;5018888;28;20492;-77
2022/11/09 03:35:55;;;;;;;7.95;4.90;;;21.20;71.50;;;;;;5036294;28;20044;-77
2022/11/09 03:38:22;;;;;;;12.48;5.93;;;21.20;71.60;;;;;;5052564;28;20025;-77
2022/11/09 03:40:49;;;;;;;10.13;5.15;;;21.20;72.40;;;;;;5051103;28;20486;-76
2022/11/09 03:43:16;;;;;;;12.90;5.00;;;21.20;72.00;;;;;;5050996;28;20043;-76
2022/11/09 03:45:42;;;;;;;16.95;5.55;;;21.20;71.70;;;;;;5051900;28;20081;-76
2022/11/09 03:48:08;;;;;;;11.15;5.10;;;21.20;71.90;;;;;;5069031;28;20482;-77
2022/11/09 03:50:34;;;;;;;11.00;5.40;;;21.20;72.00;;;;;;5049194;28;20343;-77
2022/11/09 03:53:01;;;;;;;10.93;5.20;;;21.20;72.00;;;;;;5050238;28;20445;-77
2022/11/09 03:55:27;;;;;;;9.85;5.43;;;21.20;71.90;;;;;;5070551;28;20104;-77
2022/11/09 03:57:53;;;;;;;11.90;4.80;;;21.20;71.10;;;;;;5035085;28;20413;-77
2022/11/09 04:00:21;;;;;;;11.40;5.25;;;21.20;72.20;;;;;;5069337;28;20031;-77
2022/11/09 04:02:48;;;;;;;8.38;4.55;;;21.20;71.10;;;;;;5067385;28;20025;-77
2022/11/09 04:05:14;;;;;;;10.00;4.85;;;21.20;71.60;;;;;;5067927;28;20089;-77
2022/11/09 04:07:45;;;;;;;8.55;4.93;;;21.10;71.10;;;;;;5069457;28;20029;-77
2022/11/09 04:10:11;;;;;;;8.35;4.78;;;21.20;71.70;;;;;;5068214;28;20038;-77
2022/11/09 04:12:37;;;;;;;8.98;4.95;;;21.20;71.20;;;;;;5069058;28;20032;-77
2022/11/09 04:15:03;;;;;;;11.88;5.05;;;21.20;72.00;;;;;;5071723;28;20548;-77
2022/11/09 04:17:28;;;;;;;8.85;4.97;;;21.10;71.10;;;;;;5054941;28;20521;-76
2022/11/09 04:19:54;;;;;;;11.27;4.97;;;21.10;71.30;;;;;;5073269;28;20029;-77
2022/11/09 04:22:20;;;;;;;8.68;4.95;;;21.10;71.20;;;;;;5073206;28;20032;-78
2022/11/09 04:24:46;;;;;;;7.47;4.45;;;21.20;71.30;;;;;;5072839;28;20055;-77
2022/11/09 04:27:11;;;;;;;8.05;4.43;;;21.10;71.40;;;;;;5054486;28;20024;-77
2022/11/09 04:29:37;;;;;;;11.40;4.38;;;21.20;71.50;;;;;;5074219;28;20103;-77
2022/11/09 04:32:03;;;;;;;8.55;4.70;;;21.10;71.10;;;;;;5056151;28;20103;-77
2022/11/09 04:34:28;;;;;;;8.30;4.45;;;21.10;71.60;;;;;;5072586;28;20155;-76
2022/11/09 04:36:54;;;;;;;12.48;4.57;;;21.20;71.30;;;;;;5056507;28;20020;-76
2022/11/09 04:39:20;;;;;;;10.15;4.60;;;21.20;72.20;;;;;;5056021;28;20036;-76
2022/11/09 04:41:46;;;;;;;10.88;5.05;;;21.20;71.90;;;;;;5071502;28;20028;-77
2022/11/09 04:44:11;;;;;;;11.93;4.45;;;21.20;72.90;;;;;;5095187;22;20040;-77
2022/11/09 04:46:37;;;;;;;10.88;4.68;;;21.20;71.90;;;;;;5055051;28;20028;-77
2022/11/09 04:49:03;;;;;;;8.52;4.65;;;21.20;71.70;;;;;;5072729;28;20489;-77
2022/11/09 04:51:29;;;;;;;14.32;4.63;;;21.20;71.40;;;;;;5072587;28;20028;-77
2022/11/09 04:53:55;;;;;;;8.23;4.53;;;21.20;71.50;;;;;;5055816;28;20025;-78
2022/11/09 04:56:21;;;;;;;8.63;3.95;;;21.20;71.60;;;;;;5072717;28;20032;-79
2022/11/09 04:58:48;;;;;;;8.45;4.22;;;21.20;71.40;;;;;;5070751;28;20067;-79
2022/11/09 05:01:15;;;;;;;11.43;4.78;;;21.20;71.30;;;;;;5070528;28;20058;-78
2022/11/09 05:03:41;;;;;;;14.57;4.55;;;21.20;72.70;;;;;;5068538;28;20225;-78
2022/11/09 05:08:53;;;;;;;10.95;4.65;;;21.20;71.80;;;;;;5051945;28;20103;-79
2022/11/09 05:11:19;;;;;;;8.10;4.57;;;21.20;71.40;;;;;;5072929;28;20074;-78
2022/11/09 05:13:45;;;;;;;11.77;4.80;;;21.20;71.50;;;;;;5071859;28;20315;-78
2022/11/09 05:16:12;;;;;;;9.32;4.28;;;21.20;71.60;;;;;;5055474;28;20028;-78
2022/11/09 05:18:38;;;;;;;7.63;4.18;;;21.10;71.50;;;;;;5054661;28;20021;-78
2022/11/09 05:21:03;;;;;;;7.65;4.30;;;21.20;71.30;;;;;;5037850;28;20303;-78
2022/11/09 05:26:13;;;;;;;9.15;4.07;;;21.20;71.40;;;;;;5070735;28;20036;-78
2022/11/09 05:28:39;;;;;;;8.95;4.35;;;21.20;71.40;;;;;;5070425;28;20040;-77
2022/11/09 05:31:05;;;;;;;12.07;4.28;;;21.20;71.50;;;;;;5054983;28;20032;-77
2022/11/09 05:33:31;;;;;;;9.60;4.57;;;21.20;71.30;;;;;;5071886;28;20028;-77
2022/11/09 05:35:57;;;;;;;7.38;4.38;;;21.20;71.30;;;;;;5072135;28;20402;-77
2022/11/09 05:38:24;;;;;;;7.85;3.92;;;21.10;71.20;;;;;;5053462;28;20040;-77
2022/11/09 05:40:51;;;;;;;11.38;4.28;;;21.10;71.20;;;;;;5069805;28;20082;-77
2022/11/09 05:43:18;;;;;;;15.18;5.07;;;21.20;71.40;;;;;;5069149;28;20029;-77
2022/11/09 05:45:44;;;;;;;8.20;4.28;;;21.20;71.90;;;;;;5034371;28;20037;-77
2022/11/09 05:48:12;;;;;;;9.85;4.07;;;21.10;71.40;;;;;;5035001;28;20509;-77
2022/11/09 05:50:38;;;;;;;7.05;3.85;;;21.10;71.50;;;;;;5072783;28;20111;-77
2022/11/09 05:53:22;;;;;;;11.63;4.30;;;21.10;71.80;;;;;;5045558;28;20044;-77
2022/11/09 05:55:48;;;;;;;11.18;4.35;;;21.10;72.70;;;;;;5053206;28;20032;-77
2022/11/09 05:58:14;;;;;;;8.55;4.25;;;21.20;71.70;;;;;;5054148;28;20044;-77
2022/11/09 06:00:40;;;;;;;9.40;4.22;;;21.20;71.50;;;;;;5071894;28;20112;-77
2022/11/09 06:03:09;;;;;;;8.15;4.13;;;21.20;72.30;;;;;;5071310;28;20032;-77
2022/11/09 06:05:36;;;;;;;;;;;21.20;72.30;;;;;;5054132;28;20024;-77
2022/11/09 06:08:12;;;;;;;12.13;4.47;;;21.20;72.10;;;;;;5071646;28;19909;-77
2022/11/09 06:10:39;;;;;;;10.85;3.95;;;21.20;72.40;;;;;;5064437;28;20035;-77
2022/11/09 06:13:04;;;;;;;8.05;4.18;;;21.20;72.30;;;;;;5053075;28;20028;-77
2022/11/09 06:15:30;;;;;;;9.80;4.30;;;21.20;72.30;;;;;;5053465;28;20445;-77
2022/11/09 06:17:57;;;;;;;14.35;4.30;;;21.20;72.70;;;;;;5071600;28;20386;-78
2022/11/09 06:20:25;;;;;;;11.05;4.57;;;21.20;73.00;;;;;;5053792;28;20063;-78
2022/11/09 06:22:59;;;;;;;23.23;4.80;;;21.20;72.30;;;;;;5069889;28;20017;-78
2022/11/09 06:25:25;;;;;;;11.25;4.53;;;21.20;72.10;;;;;;5056452;28;20037;-77
2022/11/09 06:27:54;;;;;;;10.30;4.53;;;21.20;72.10;;;;;;5053735;28;20025;-77
2022/11/09 06:30:20;;;;;;;9.90;4.32;;;21.20;72.20;;;;;;5071166;28;20021;-76
2022/11/09 06:32:46;;;;;;;13.85;4.38;;;21.20;71.90;;;;;;5069862;28;20047;-76
2022/11/09 06:35:11;;;;;;;11.13;4.43;;;21.20;72.30;;;;;;5052193;28;20117;-77
2022/11/09 06:37:37;;;;;;;7.72;3.92;;;21.20;71.80;;;;;;5052875;28;20037;-77
2022/11/09 06:40:04;;;;;;;10.75;4.22;;;21.20;72.40;;;;;;5069816;28;20062;-77
2022/11/09 06:42:30;;;;;;;9.00;4.80;;;21.20;72.40;;;;;;5068442;28;20436;-77
2022/11/09 06:44:56;;;;;;;10.93;4.30;;;21.20;72.50;;;;;;5054261;28;20033;-77
2022/11/09 06:47:21;;;;;;;9.48;4.07;;;21.20;72.50;;;;;;5033598;28;20112;-77
2022/11/09 06:49:47;;;;;;;11.57;4.00;;;21.20;72.30;;;;;;5058702;28;20055;-77
2022/11/09 06:52:13;;;;;;;9.23;3.90;;;21.20;72.50;;;;;;5080204;28;20021;-77
2022/11/09 06:54:39;;;;;;;9.23;4.28;;;21.20;73.00;;;;;;5076062;28;20032;-77
2022/11/09 06:57:04;;;;;;;9.27;4.30;;;21.20;72.30;;;;;;5072087;28;20043;-78
2022/11/09 06:59:30;;;;;;;8.65;3.80;;;21.20;72.40;;;;;;5070394;28;20437;-78
2022/11/09 07:01:58;;;;;;;10.82;4.10;;;21.20;72.50;;;;;;5032778;28;20036;-78
2022/11/09 07:04:23;;;;;;;8.95;4.13;;;21.20;72.50;;;;;;5068923;28;20024;-78
2022/11/09 07:06:49;;;;;;;11.52;4.30;;;21.20;72.30;;;;;;5052754;28;20387;-76
2022/11/09 07:09:15;;;;;;;8.95;4.03;;;21.20;73.10;;;;;;5069937;28;20061;-76
2022/11/09 07:11:40;;;;;;;7.95;4.07;;;21.20;71.90;;;;;;5069342;28;20033;-77
2022/11/09 07:14:06;;;;;;;9.02;4.60;;;21.20;72.70;;;;;;5068017;28;20025;-77
2022/11/09 07:16:32;;;;;;;8.80;3.90;;;21.20;72.50;;;;;;5069142;28;20036;-77
2022/11/09 07:18:58;;;;;;;8.45;4.25;;;21.20;72.30;;;;;;5052290;28;20059;-77
2022/11/09 07:21:24;;;;;;;12.88;4.00;;;21.20;72.50;;;;;;5071359;28;20028;-77
2022/11/09 07:23:49;;;;;;;7.72;4.03;;;21.20;72.50;;;;;;5051080;28;20032;-77
2022/11/09 07:26:15;;;;;;;8.85;3.90;;;21.20;73.00;;;;;;5070605;28;20028;-77
2022/11/09 07:28:42;;;;;;;11.15;4.18;;;21.20;72.40;;;;;;5052680;28;20029;-77
2022/11/09 07:31:08;;;;;;;9.90;4.28;;;21.20;72.40;;;;;;5052186;28;20021;-77
2022/11/09 07:33:34;;;;;;;9.05;3.80;;;21.20;72.50;;;;;;5052786;28;20029;-77
2022/11/09 07:36:02;;;;;;;11.88;4.70;;;21.20;72.40;;;;;;5052501;28;20104;-77
2022/11/09 07:38:28;;;;;;;8.32;3.88;;;21.20;72.30;;;;;;5052308;28;20028;-77
2022/11/09 07:40:56;;;;;;;10.85;3.85;;;21.20;72.30;;;;;;5038456;28;20521;-77
2022/11/09 07:43:22;;;;;;;8.43;4.00;;;21.20;72.30;;;;;;5051034;28;20556;-78
2022/11/09 07:45:50;;;;;;;9.48;4.20;;;21.20;72.40;;;;;;5049928;28;20051;-78
2022/11/09 07:48:16;;;;;;;9.05;3.70;;;21.20;72.30;;;;;;5051569;28;20029;-77
2022/11/09 07:50:42;;;;;;;7.97;3.90;;;21.20;72.00;;;;;;5035892;28;20025;-78
2022/11/09 07:53:11;;;;;;;9.43;4.18;;;21.20;72.40;;;;;;5070062;28;20024;-78
2022/11/09 07:55:37;;;;;;;9.10;3.50;;;21.20;71.90;;;;;;5035857;28;20033;-77
2022/11/09 07:58:09;;;;;;;8.77;4.20;;;21.20;72.30;;;;;;5037010;28;20036;-77
2022/11/09 08:00:37;;;;;;;7.97;3.92;;;21.20;71.80;;;;;;5050678;28;20040;-76
2022/11/09 08:03:03;;;;;;;9.57;4.07;;;21.20;72.30;;;;;;5033528;28;20035;-77
2022/11/09 08:05:29;;;;;;;10.40;4.22;;;21.20;72.60;;;;;;5050971;28;20383;-77
2022/11/09 08:08:03;;;;;;;11.20;4.60;;;21.20;72.70;;;;;;5069846;28;20032;-77
2022/11/09 08:10:31;;;;;;;9.60;4.00;;;21.20;72.80;;;;;;5020428;28;20035;-77
2022/11/09 08:12:59;;;;;;;9.27;4.00;;;21.20;72.70;;;;;;5050493;28;20059;-77
2022/11/09 08:15:26;;;;;;;13.48;4.32;;;21.20;72.40;;;;;;5019238;28;20639;-77
2022/11/09 08:17:52;;;;;;;14.32;3.90;;;21.20;72.30;;;;;;5070141;28;20028;-77
2022/11/09 08:20:19;;;;;;;10.48;3.80;;;21.20;73.30;;;;;;5071318;28;20031;-76
2022/11/09 08:22:46;;;;;;;11.32;3.78;;;21.30;72.70;;;;;;5067152;28;20032;-76
2022/11/09 08:25:13;;;;;;;9.48;3.47;;;21.30;72.30;;;;;;5069496;28;20029;-76
2022/11/09 08:27:39;;;;;;;11.68;3.53;;;21.40;72.30;;;;;;5052868;28;20028;-78
2022/11/09 08:30:13;;;;;;;10.38;3.83;;;21.30;72.80;;;;;;5051973;28;20175;-77
2022/11/09 08:32:40;;;;;;;11.70;3.80;;;21.30;72.70;;;;;;5052112;28;20032;-76
2022/11/09 08:35:09;;;;;;;15.77;4.47;;;21.30;72.60;;;;;;5052273;28;20032;-77
2022/11/09 08:37:36;;;;;;;11.23;4.35;;;21.30;72.30;;;;;;5066025;28;20080;-77
2022/11/09 08:40:02;;;;;;;17.60;4.40;;;21.30;72.30;;;;;;5055544;28;20115;-77
2022/11/09 08:42:28;;;;;;;12.02;4.43;;;21.30;72.40;;;;;;5050861;28;20024;-76
2022/11/09 08:44:54;;;;;;;10.75;4.22;;;21.30;72.30;;;;;;5071798;22;20402;-80
2022/11/09 08:47:20;;;;;;;14.30;4.90;;;21.30;72.30;;;;;;5036382;28;20025;-78
2022/11/09 08:49:46;;;;;;;10.40;4.35;;;21.30;72.30;;;;;;5072247;28;20452;-78
2022/11/09 08:52:12;;;;;;;18.00;4.18;;;21.20;69.30;;;;;;5079401;28;20527;-78
2022/11/09 08:54:38;;;;;;;8.82;3.53;;;21.00;63.50;;;;;;5064456;28;20505;-78
2022/11/09 08:57:04;;;;;;;8.73;3.47;;;20.80;61.70;;;;;;5059731;28;20033;-78
2022/11/09 08:59:30;;;;;;;32.55;5.03;;;20.60;61.00;;;;;;5042257;28;20382;-77
2022/11/09 09:01:55;;;;;;;16.48;3.85;;;20.50;60.60;;;;;;5032030;28;20068;-79
2022/11/09 09:04:21;;;;;;;16.77;4.00;;;20.40;60.70;;;;;;5053272;28;20029;-76
2022/11/09 09:06:47;;;;;;;14.70;3.22;;;20.30;61.20;;;;;;5053985;28;20032;-76
2022/11/09 09:09:13;;;;;;;8.13;3.35;;;20.50;62.10;;;;;;5054182;28;20493;-76
2022/11/09 09:11:38;;;;;;;25.60;4.15;;;20.60;63.20;;;;;;5053846;28;20492;-76
2022/11/09 09:14:04;;;;;;;16.23;4.07;;;20.70;65.20;;;;;;5053320;28;20525;-77
2022/11/09 09:16:30;;;;;;;11.18;4.53;;;20.90;67.70;;;;;;5051332;28;20041;-76
2022/11/09 09:18:56;;;;;;;10.38;4.28;;;21.00;67.80;;;;;;5049993;28;20044;-76
2022/11/09 09:21:21;;;;;;;10.30;3.85;;;21.10;66.70;;;;;;5052803;28;20033;-76
2022/11/09 09:23:48;;;;;;;15.45;4.65;;;21.20;67.40;;;;;;5041106;28;20037;-75
2022/11/09 09:26:14;;;;;;;28.38;7.70;;;21.20;66.30;;;;;;5051299;28;20036;-85
2022/11/09 09:28:40;;;;;;;20.17;6.22;;;21.20;65.90;;;;;;5034939;28;20029;-85
2022/11/09 09:31:06;;;;;;;17.90;6.95;;;21.20;68.10;;;;;;5052075;28;20044;-84
2022/11/09 09:33:32;;;;;;;23.13;9.70;;;21.10;67.50;;;;;;5031353;28;20067;-76
2022/11/09 09:35:59;;;;;;;16.77;7.60;;;21.10;65.90;;;;;;5051032;28;20107;-76
2022/11/09 09:38:26;;;;;;;22.42;8.10;;;21.20;66.50;;;;;;5032343;28;20119;-76
2022/11/09 09:41:00;;;;;;;17.88;8.65;;;21.20;66.80;;;;;;5049865;28;20071;-76
2022/11/09 09:43:45;;;;;;;18.42;8.65;;;21.20;66.50;;;;;;5051880;28;20021;-76
2022/11/09 09:46:30;;;;;;;18.05;8.95;;;21.30;66.50;;;;;;5033425;28;20116;-75
2022/11/09 09:49:06;;;;;;;19.42;8.80;;;21.30;66.40;;;;;;5045018;28;20029;-76
2022/11/09 09:51:41;;;;;;;21.65;8.75;;;21.30;66.60;;;;;;5042627;28;20333;-76
2022/11/09 09:54:17;;;;;;;20.27;8.30;;;21.30;66.70;;;;;;5050280;28;20487;-76
2022/11/09 09:56:46;;;;;;;16.42;8.45;;;21.30;66.80;;;;;;5049335;28;20112;-76
2022/11/09 09:59:29;;;;;;;14.93;7.72;;;21.30;66.90;;;;;;5032946;28;20151;-77
2022/11/09 10:01:57;;;;;;;19.00;7.75;;;21.30;67.10;;;;;;5049683;28;20041;-76
2022/11/09 10:04:38;;;;;;;17.17;7.57;;;21.30;67.00;;;;;;5050353;28;20033;-77
2022/11/09 10:07:23;;;;;;;18.92;7.05;;;21.30;67.10;;;;;;5032668;28;20032;-76
2022/11/09 10:10:01;;;;;;;17.00;7.00;;;21.20;66.90;;;;;;5050640;28;20088;-77
2022/11/09 10:12:55;;;;;;;14.57;6.25;;;21.20;66.60;;;;;;5049029;28;20025;-76
2022/11/09 10:15:40;;;;;;;11.95;6.05;;;21.20;66.20;;;;;;5049779;28;20445;-77
2022/11/09 10:18:05;;;;;;;12.63;6.22;;;21.20;66.20;;;;;;5053489;28;20438;-77
2022/11/09 10:20:54;;;;;;;12.77;5.95;;;21.20;66.00;;;;;;5056815;28;20079;-77
2022/11/09 10:23:28;;;;;;;11.13;5.37;;;21.20;65.80;;;;;;5033316;28;20538;-76
2022/11/09 10:26:02;;;;;;;10.00;5.60;;;21.10;65.80;;;;;;5016265;28;20037;-76
2022/11/09 10:28:29;;;;;;;12.68;5.70;;;21.10;65.70;;;;;;5050558;28;20418;-77
2022/11/09 10:30:57;;;;;;;10.75;5.10;;;21.10;65.40;;;;;;5031720;28;20521;-77
2022/11/09 10:33:24;;;;;;;8.77;4.90;;;21.10;65.40;;;;;;5028296;28;20075;-77
2022/11/09 10:36:16;;;;;;;10.45;4.88;;;21.10;65.70;;;;;;5036195;28;20045;-76
2022/11/09 10:38:48;;;;;;;10.88;5.03;;;21.20;65.50;;;;;;5028157;28;20037;-77
2022/11/09 10:41:41;;;;;;;13.68;4.72;;;21.10;65.40;;;;;;5061453;28;20120;-77
2022/11/09 10:44:25;;;;;;;11.20;4.43;;;21.20;65.60;;;;;;5050983;23;20414;-76
2022/11/09 10:47:15;;;;;;;10.25;5.35;;;21.20;65.70;;;;;;5046680;28;20449;-75
2022/11/09 10:50:24;;;;;;;9.50;5.20;;;21.20;65.90;;;;;;5049157;28;20112;-75
2022/11/09 10:53:14;;;;;;;9.77;4.93;;;21.20;66.00;;;;;;5047491;28;20035;-75
2022/11/09 10:56:18;;;;;;;10.05;4.97;;;21.30;66.20;;;;;;5022603;28;20395;-76
2022/11/09 10:59:26;;;;;;;11.10;5.20;;;21.30;66.30;;;;;;5027131;28;20144;-76
2022/11/09 11:02:24;;;;;;;13.40;5.50;;;21.30;66.30;;;;;;5028524;28;20092;-75
2022/11/09 11:05:09;;;;;;;29.15;5.32;;;21.30;66.40;;;;;;5025640;28;20018;-75
2022/11/09 11:07:54;;;;;;;22.48;5.18;;;21.30;66.60;;;;;;5024163;28;20156;-75
2022/11/09 11:10:38;;;;;;;12.23;5.18;;;21.40;66.60;;;;;;5022691;28;20503;-76
2022/11/09 11:13:23;;;;;;;10.50;4.88;;;21.40;66.70;;;;;;5029870;28;20030;-75
2022/11/09 11:16:30;;;;;;;14.93;5.10;;;21.30;66.60;;;;;;5029378;28;20060;-75
2022/11/09 11:19:25;;;;;;;12.32;5.45;;;21.30;66.60;;;;;;5029462;28;20474;-76
2022/11/09 11:22:10;;;;;;;12.43;5.28;;;21.40;66.80;;;;;;5029013;28;20029;-75
2022/11/09 11:24:59;;;;;;;11.57;5.45;;;21.30;66.70;;;;;;5028516;28;20045;-75
2022/11/09 11:27:57;;;;;;;11.80;5.13;;;21.30;66.80;;;;;;5029471;28;20111;-75
2022/11/09 11:30:41;;;;;;;16.65;5.00;;;21.30;66.80;;;;;;5029626;28;20036;-75
2022/11/09 11:33:28;;;;;;;13.93;4.90;;;21.30;66.90;;;;;;5028918;28;20069;-76
2022/11/09 11:36:36;;;;;;;10.35;5.03;;;21.30;67.00;;;;;;5029407;28;20444;-76
2022/11/09 11:39:55;;;;;;;8.82;4.55;;;21.30;67.10;;;;;;5029607;28;20052;-75
2022/11/09 11:43:01;;;;;;;10.45;4.65;;;21.30;67.10;;;;;;5028708;28;20057;-75
2022/11/09 11:45:52;;;;;;;11.60;5.18;;;21.30;67.20;;;;;;5029447;28;20553;-75
2022/11/09 11:48:56;;;;;;;9.27;5.03;;;21.30;67.10;;;;;;5029233;28;20025;-75
2022/11/09 11:52:19;;;;;;;12.57;4.95;;;21.30;67.20;;;;;;5029122;28;20467;-75
2022/11/09 11:55:37;;;;;;;8.60;4.13;;;21.30;67.20;;;;;;5027809;28;20084;-76
2022/11/09 11:58:36;;;;;;;9.15;4.22;;;21.30;67.30;;;;;;5028878;28;20487;-75
2022/11/09 12:01:40;;;;;;;8.80;4.82;;;21.30;67.30;;;;;;5027183;28;20025;-76
2022/11/09 12:05:15;;;;;;;14.75;5.50;;;21.30;67.40;;;;;;5023765;28;20029;-76
2022/11/09 12:08:05;;;;;;;12.10;5.45;;;21.20;67.20;;;;;;5029089;28;20032;-75
2022/11/09 12:11:09;;;;;;;15.52;6.15;;;21.20;67.10;;;;;;5029776;28;20124;-76
2022/11/09 12:14:25;;;;;;;20.23;6.32;;;21.30;67.40;;;;;;5027287;28;20383;-75
2022/11/09 12:17:36;;;;;;;18.38;6.55;;;21.30;67.50;;;;;;5018236;28;20048;-75
2022/11/09 12:20:47;;;;;;;20.02;5.88;;;21.40;68.50;;;;;;5029128;28;20505;-77
2022/11/09 12:23:43;;;;;;;16.80;5.57;;;21.40;69.60;;;;;;5022656;28;20401;-78
2022/11/09 12:26:44;;;;;;;14.55;7.32;;;21.30;68.90;;;;;;5026143;28;20025;-77
2022/11/09 12:29:43;;;;;;;25.42;14.38;;;21.30;69.20;;;;;;5028256;28;20025;-77
2022/11/09 12:32:47;;;;;;;;;;;21.20;65.50;;;;;;5025188;28;20568;-77
2022/11/09 12:35:38;;;;;;;11.70;5.28;;;21.10;65.40;;;;;;5026625;28;19931;-78
2022/11/09 12:38:35;;;;;;;8.63;4.28;;;21.00;62.40;;;;;;5031616;28;20079;-77
2022/11/09 12:41:24;;;;;;;10.80;3.50;;;21.00;62.20;;;;;;5030244;28;20037;-77
2022/11/09 12:44:21;;;;;;;5.90;3.15;;;21.00;61.50;;;;;;5032285;28;20064;-78
2022/11/09 12:47:14;;;;;;;7.55;3.33;;;20.90;62.00;;;;;;5031563;28;20057;-78
2022/11/09 12:49:58;;;;;;;5.85;3.10;;;20.90;61.30;;;;;;5031859;28;20041;-78
2022/11/09 12:52:44;;;;;;;6.45;3.22;;;20.80;61.10;;;;;;5032124;28;20041;-78
2022/11/09 12:56:03;;;;;;;4.90;2.45;;;20.80;60.00;;;;;;5031305;28;20033;-78
2022/11/09 12:58:48;;;;;;;4.97;2.30;;;20.80;60.70;;;;;;5032625;28;20032;-78
2022/11/09 13:01:32;;;;;;;5.60;3.10;;;20.80;60.10;;;;;;5031703;28;20087;-78
2022/11/09 13:04:19;;;;;;;11.18;3.55;;;20.80;60.70;;;;;;5032419;28;20542;-77
2022/11/09 13:07:06;;;;;;;8.88;3.22;;;20.80;60.20;;;;;;5032392;28;20026;-76
2022/11/09 13:09:56;;;;;;;5.38;2.65;;;20.80;60.20;;;;;;5031341;28;20048;-77
2022/11/09 13:12:41;;;;;;;5.70;2.40;;;20.80;60.00;;;;;;5032298;28;20282;-78
2022/11/09 13:15:28;;;;;;;6.80;2.38;;;20.80;59.80;;;;;;5032079;28;20052;-78